sensor_id;sensor_type;location;lat;lon;timestamp;temperature;humidity
45115;DHT22;30877;43.706;10.780;2024-02-15T00:00:18;9.70;96.70
45115;DHT22;30877;43.706;10.780;2024-02-15T00:02:46;9.70;96.70
45115;DHT22;30877;43.706;10.780;2024-02-15T00:05:16;9.70;96.70
45115;DHT22;30877;43.706;10.780;2024-02-15T00:07:45;9.70;96.70
45115;DHT22;30877;43.706;10.780;2024-02-15T00:10:18;9.60;96.70
45115;DHT22;30877;43.706;10.780;2024-02-15T00:12:49;9.60;96.70
45115;DHT22;30877;43.706;10.780;2024-02-15T00:15:20;9.60;96.70
45115;DHT22;30877;43.706;10.780;2024-02-15T00:17:49;9.60;96.70
45115;DHT22;30877;43.706;10.780;2024-02-15T00:20:18;9.60;96.70
45115;DHT22;30877;43.706;10.780;2024-02-15T00:22:49;9.60;96.70
45115;DHT22;30877;43.706;10.780;2024-02-15T00:25:20;9.60;96.70
45115;DHT22;30877;43.706;10.780;2024-02-15T00:27:49;9.60;96.70
45115;DHT22;30877;43.706;10.780;2024-02-15T00:30:19;9.60;96.70
45115;DHT22;30877;43.706;10.780;2024-02-15T00:32:47;9.60;96.70
45115;DHT22;30877;43.706;10.780;2024-02-15T00:35:17;9.50;96.70
45115;DHT22;30877;43.706;10.780;2024-02-15T00:37:47;9.50;96.70
45115;DHT22;30877;43.706;10.780;2024-02-15T00:40:15;9.60;96.70
45115;DHT22;30877;43.706;10.780;2024-02-15T00:42:46;9.70;96.70
45115;DHT22;30877;43.706;10.780;2024-02-15T00:45:16;9.70;96.70
45115;DHT22;30877;43.706;10.780;2024-02-15T00:47:45;9.60;96.70
45115;DHT22;30877;43.706;10.780;2024-02-15T00:50:17;9.60;96.70
45115;DHT22;30877;43.706;10.780;2024-02-15T00:52:47;9.70;96.70
45115;DHT22;30877;43.706;10.780;2024-02-15T00:55:17;9.70;96.70
45115;DHT22;30877;43.706;10.780;2024-02-15T00:57:49;9.70;96.70
45115;DHT22;30877;43.706;10.780;2024-02-15T01:00:18;9.70;96.70
45115;DHT22;30877;43.706;10.780;2024-02-15T01:02:47;9.70;96.70
45115;DHT22;30877;43.706;10.780;2024-02-15T01:05:17;9.80;96.70
45115;DHT22;30877;43.706;10.780;2024-02-15T01:07:46;9.80;96.70
45115;DHT22;30877;43.706;10.780;2024-02-15T01:10:16;9.70;96.70
45115;DHT22;30877;43.706;10.780;2024-02-15T01:12:49;9.70;96.70
45115;DHT22;30877;43.706;10.780;2024-02-15T01:15:19;9.60;96.70
45115;DHT22;30877;43.706;10.780;2024-02-15T01:17:48;9.70;96.70
45115;DHT22;30877;43.706;10.780;2024-02-15T01:20:19;9.70;96.70
45115;DHT22;30877;43.706;10.780;2024-02-15T01:22:48;9.60;96.70
45115;DHT22;30877;43.706;10.780;2024-02-15T01:25:20;9.60;96.70
45115;DHT22;30877;43.706;10.780;2024-02-15T01:27:52;9.60;96.70
45115;DHT22;30877;43.706;10.780;2024-02-15T01:30:21;9.60;96.70
45115;DHT22;30877;43.706;10.780;2024-02-15T01:32:50;9.60;96.70
45115;DHT22;30877;43.706;10.780;2024-02-15T01:35:19;9.60;96.70
45115;DHT22;30877;43.706;10.780;2024-02-15T01:37:48;9.60;96.70
45115;DHT22;30877;43.706;10.780;2024-02-15T01:40:16;9.60;96.70
45115;DHT22;30877;43.706;10.780;2024-02-15T01:42:46;9.60;96.70
45115;DHT22;30877;43.706;10.780;2024-02-15T01:45:17;9.60;96.70
45115;DHT22;30877;43.706;10.780;2024-02-15T01:47:46;9.50;96.70
45115;DHT22;30877;43.706;10.780;2024-02-15T01:50:17;9.40;96.70
45115;DHT22;30877;43.706;10.780;2024-02-15T01:52:47;9.40;96.70
45115;DHT22;30877;43.706;10.780;2024-02-15T01:55:18;9.40;96.70
45115;DHT22;30877;43.706;10.780;2024-02-15T01:57:48;9.40;96.70
45115;DHT22;30877;43.706;10.780;2024-02-15T02:00:20;9.30;96.70
45115;DHT22;30877;43.706;10.780;2024-02-15T02:02:49;9.30;96.70
45115;DHT22;30877;43.706;10.780;2024-02-15T02:05:18;9.20;96.70
45115;DHT22;30877;43.706;10.780;2024-02-15T02:07:47;9.20;96.70
45115;DHT22;30877;43.706;10.780;2024-02-15T02:10:19;9.20;96.70
45115;DHT22;30877;43.706;10.780;2024-02-15T02:12:49;9.20;96.70
45115;DHT22;30877;43.706;10.780;2024-02-15T02:15:22;9.10;96.70
45115;DHT22;30877;43.706;10.780;2024-02-15T02:17:52;9.10;96.70
45115;DHT22;30877;43.706;10.780;2024-02-15T02:20:22;9.10;96.70
45115;DHT22;30877;43.706;10.780;2024-02-15T02:22:54;9.10;96.70
45115;DHT22;30877;43.706;10.780;2024-02-15T02:25:33;9.10;96.70
45115;DHT22;30877;43.706;10.780;2024-02-15T02:28:03;9.10;96.70
45115;DHT22;30877;43.706;10.780;2024-02-15T02:30:33;9.10;96.70
45115;DHT22;30877;43.706;10.780;2024-02-15T02:33:04;9.10;96.70
45115;DHT22;30877;43.706;10.780;2024-02-15T02:35:36;9.10;96.70
45115;DHT22;30877;43.706;10.780;2024-02-15T02:38:06;9.10;96.70
45115;DHT22;30877;43.706;10.780;2024-02-15T02:40:36;9.10;96.70
45115;DHT22;30877;43.706;10.780;2024-02-15T02:43:06;9.10;96.70
45115;DHT22;30877;43.706;10.780;2024-02-15T02:45:35;9.10;96.70
45115;DHT22;30877;43.706;10.780;2024-02-15T02:48:06;9.10;96.70
45115;DHT22;30877;43.706;10.780;2024-02-15T02:50:36;9.10;96.70
45115;DHT22;30877;43.706;10.780;2024-02-15T02:53:06;9.10;96.70
45115;DHT22;30877;43.706;10.780;2024-02-15T02:55:36;9.10;96.70
45115;DHT22;30877;43.706;10.780;2024-02-15T02:58:06;9.00;96.70
45115;DHT22;30877;43.706;10.780;2024-02-15T03:00:35;9.00;96.70
45115;DHT22;30877;43.706;10.780;2024-02-15T03:03:06;9.00;96.70
45115;DHT22;30877;43.706;10.780;2024-02-15T03:05:35;8.90;96.70
45115;DHT22;30877;43.706;10.780;2024-02-15T03:08:05;8.90;96.70
45115;DHT22;30877;43.706;10.780;2024-02-15T03:10:37;9.00;96.70
45115;DHT22;30877;43.706;10.780;2024-02-15T03:13:07;8.90;96.70
45115;DHT22;30877;43.706;10.780;2024-02-15T03:15:41;8.80;96.70
45115;DHT22;30877;43.706;10.780;2024-02-15T03:18:10;8.80;96.70
45115;DHT22;30877;43.706;10.780;2024-02-15T03:20:39;8.70;96.70
45115;DHT22;30877;43.706;10.780;2024-02-15T03:23:09;8.70;96.70
45115;DHT22;30877;43.706;10.780;2024-02-15T03:25:43;8.70;96.70
45115;DHT22;30877;43.706;10.780;2024-02-15T03:28:12;8.60;96.70
45115;DHT22;30877;43.706;10.780;2024-02-15T03:30:44;8.80;96.70
45115;DHT22;30877;43.706;10.780;2024-02-15T03:33:14;8.80;96.70
45115;DHT22;30877;43.706;10.780;2024-02-15T03:35:43;8.80;96.70
45115;DHT22;30877;43.706;10.780;2024-02-15T03:38:13;8.70;96.70
45115;DHT22;30877;43.706;10.780;2024-02-15T03:40:46;8.70;96.70
45115;DHT22;30877;43.706;10.780;2024-02-15T03:43:15;8.60;96.70
45115;DHT22;30877;43.706;10.780;2024-02-15T03:45:46;8.60;96.70
45115;DHT22;30877;43.706;10.780;2024-02-15T03:48:16;8.70;96.70
45115;DHT22;30877;43.706;10.780;2024-02-15T03:50:45;8.60;96.70
45115;DHT22;30877;43.706;10.780;2024-02-15T03:53:14;8.60;96.70
45115;DHT22;30877;43.706;10.780;2024-02-15T03:55:46;8.70;96.70
45115;DHT22;30877;43.706;10.780;2024-02-15T03:58:14;8.70;96.70
45115;DHT22;30877;43.706;10.780;2024-02-15T04:00:45;8.70;96.70
45115;DHT22;30877;43.706;10.780;2024-02-15T04:03:14;8.70;96.70
45115;DHT22;30877;43.706;10.780;2024-02-15T04:05:46;8.60;96.70
45115;DHT22;30877;43.706;10.780;2024-02-15T04:08:16;8.60;96.70
45115;DHT22;30877;43.706;10.780;2024-02-15T04:10:48;8.60;96.70
45115;DHT22;30877;43.706;10.780;2024-02-15T04:13:20;8.60;96.70
45115;DHT22;30877;43.706;10.780;2024-02-15T04:15:49;8.60;96.70
45115;DHT22;30877;43.706;10.780;2024-02-15T04:18:18;8.60;96.70
45115;DHT22;30877;43.706;10.780;2024-02-15T04:20:47;8.60;96.70
45115;DHT22;30877;43.706;10.780;2024-02-15T04:23:17;8.50;96.70
45115;DHT22;30877;43.706;10.780;2024-02-15T04:25:48;8.50;96.70
45115;DHT22;30877;43.706;10.780;2024-02-15T04:28:20;8.40;96.70
45115;DHT22;30877;43.706;10.780;2024-02-15T04:30:48;8.40;96.70
45115;DHT22;30877;43.706;10.780;2024-02-15T04:33:18;8.40;96.70
45115;DHT22;30877;43.706;10.780;2024-02-15T04:35:46;8.40;96.70
45115;DHT22;30877;43.706;10.780;2024-02-15T04:38:17;8.30;96.70
45115;DHT22;30877;43.706;10.780;2024-02-15T04:40:48;8.30;96.70
45115;DHT22;30877;43.706;10.780;2024-02-15T04:43:18;8.30;96.70
45115;DHT22;30877;43.706;10.780;2024-02-15T04:45:48;8.40;96.70
45115;DHT22;30877;43.706;10.780;2024-02-15T04:48:16;8.40;96.70
45115;DHT22;30877;43.706;10.780;2024-02-15T04:50:46;8.40;96.70
45115;DHT22;30877;43.706;10.780;2024-02-15T04:53:16;8.40;96.70
45115;DHT22;30877;43.706;10.780;2024-02-15T04:55:47;8.40;96.70
45115;DHT22;30877;43.706;10.780;2024-02-15T04:58:16;8.50;96.70
45115;DHT22;30877;43.706;10.780;2024-02-15T05:00:44;8.50;96.70
45115;DHT22;30877;43.706;10.780;2024-02-15T05:03:13;8.40;96.70
45115;DHT22;30877;43.706;10.780;2024-02-15T05:05:45;8.40;96.70
45115;DHT22;30877;43.706;10.780;2024-02-15T05:08:16;8.50;96.70
45115;DHT22;30877;43.706;10.780;2024-02-15T05:10:44;8.50;96.70
45115;DHT22;30877;43.706;10.780;2024-02-15T05:13:15;8.50;96.70
45115;DHT22;30877;43.706;10.780;2024-02-15T05:15:44;8.60;96.70
45115;DHT22;30877;43.706;10.780;2024-02-15T05:18:13;8.60;96.70
45115;DHT22;30877;43.706;10.780;2024-02-15T05:20:45;8.60;96.70
45115;DHT22;30877;43.706;10.780;2024-02-15T05:23:16;8.60;96.70
45115;DHT22;30877;43.706;10.780;2024-02-15T05:25:46;8.50;96.70
45115;DHT22;30877;43.706;10.780;2024-02-15T05:28:17;8.50;96.70
45115;DHT22;30877;43.706;10.780;2024-02-15T05:30:47;8.50;96.70
45115;DHT22;30877;43.706;10.780;2024-02-15T05:33:15;8.50;96.70
45115;DHT22;30877;43.706;10.780;2024-02-15T05:35:45;8.40;96.70
45115;DHT22;30877;43.706;10.780;2024-02-15T05:38:17;8.40;96.70
45115;DHT22;30877;43.706;10.780;2024-02-15T05:40:49;8.50;96.70
45115;DHT22;30877;43.706;10.780;2024-02-15T05:43:20;8.40;96.70
45115;DHT22;30877;43.706;10.780;2024-02-15T05:45:49;8.40;96.70
45115;DHT22;30877;43.706;10.780;2024-02-15T05:48:20;8.40;96.70
45115;DHT22;30877;43.706;10.780;2024-02-15T05:50:50;8.30;96.70
45115;DHT22;30877;43.706;10.780;2024-02-15T05:53:18;8.30;96.70
45115;DHT22;30877;43.706;10.780;2024-02-15T05:55:46;8.30;96.70
45115;DHT22;30877;43.706;10.780;2024-02-15T05:58:17;8.30;96.70
45115;DHT22;30877;43.706;10.780;2024-02-15T06:00:48;8.30;96.70
45115;DHT22;30877;43.706;10.780;2024-02-15T06:03:18;8.40;96.70
45115;DHT22;30877;43.706;10.780;2024-02-15T06:05:47;8.40;96.70
45115;DHT22;30877;43.706;10.780;2024-02-15T06:08:16;8.50;96.70
45115;DHT22;30877;43.706;10.780;2024-02-15T06:10:45;8.50;96.70
45115;DHT22;30877;43.706;10.780;2024-02-15T06:13:16;8.40;96.70
45115;DHT22;30877;43.706;10.780;2024-02-15T06:15:45;8.50;96.70
45115;DHT22;30877;43.706;10.780;2024-02-15T06:18:15;8.30;96.70
45115;DHT22;30877;43.706;10.780;2024-02-15T06:20:49;8.40;96.70
45115;DHT22;30877;43.706;10.780;2024-02-15T06:23:20;8.30;96.70
45115;DHT22;30877;43.706;10.780;2024-02-15T06:25:52;8.40;96.70
45115;DHT22;30877;43.706;10.780;2024-02-15T06:28:28;8.30;96.70
45115;DHT22;30877;43.706;10.780;2024-02-15T06:31:15;8.30;96.70
45115;DHT22;30877;43.706;10.780;2024-02-15T06:34:04;8.20;96.70
45115;DHT22;30877;43.706;10.780;2024-02-15T06:36:53;8.30;96.70
45115;DHT22;30877;43.706;10.780;2024-02-15T06:39:40;8.30;96.70
45115;DHT22;30877;43.706;10.780;2024-02-15T06:42:14;8.30;96.70
45115;DHT22;30877;43.706;10.780;2024-02-15T06:44:48;8.40;96.70
45115;DHT22;30877;43.706;10.780;2024-02-15T06:47:18;8.40;96.70
45115;DHT22;30877;43.706;10.780;2024-02-15T06:49:48;8.50;96.70
45115;DHT22;30877;43.706;10.780;2024-02-15T06:52:20;8.50;96.70
45115;DHT22;30877;43.706;10.780;2024-02-15T06:54:49;8.50;96.70
45115;DHT22;30877;43.706;10.780;2024-02-15T06:57:20;8.60;96.70
45115;DHT22;30877;43.706;10.780;2024-02-15T06:59:48;8.60;96.70
45115;DHT22;30877;43.706;10.780;2024-02-15T07:02:16;8.60;96.70
45115;DHT22;30877;43.706;10.780;2024-02-15T07:04:45;8.60;96.70
45115;DHT22;30877;43.706;10.780;2024-02-15T07:07:15;8.60;96.70
45115;DHT22;30877;43.706;10.780;2024-02-15T07:09:44;8.70;96.70
45115;DHT22;30877;43.706;10.780;2024-02-15T07:12:13;8.70;96.70
45115;DHT22;30877;43.706;10.780;2024-02-15T07:14:43;8.70;96.70
45115;DHT22;30877;43.706;10.780;2024-02-15T07:17:13;8.80;96.70
45115;DHT22;30877;43.706;10.780;2024-02-15T07:19:43;8.70;96.70
45115;DHT22;30877;43.706;10.780;2024-02-15T07:22:15;8.80;96.70
45115;DHT22;30877;43.706;10.780;2024-02-15T07:24:46;8.80;96.70
45115;DHT22;30877;43.706;10.780;2024-02-15T07:27:15;8.80;96.70
45115;DHT22;30877;43.706;10.780;2024-02-15T07:29:47;8.80;96.70
45115;DHT22;30877;43.706;10.780;2024-02-15T07:32:16;8.90;96.70
45115;DHT22;30877;43.706;10.780;2024-02-15T07:34:46;8.90;96.70
45115;DHT22;30877;43.706;10.780;2024-02-15T07:37:18;8.90;96.70
45115;DHT22;30877;43.706;10.780;2024-02-15T07:39:47;8.90;96.70
45115;DHT22;30877;43.706;10.780;2024-02-15T07:42:18;8.90;96.70
45115;DHT22;30877;43.706;10.780;2024-02-15T07:44:46;8.90;96.70
45115;DHT22;30877;43.706;10.780;2024-02-15T07:47:15;8.90;96.70
45115;DHT22;30877;43.706;10.780;2024-02-15T07:49:46;8.80;96.70
45115;DHT22;30877;43.706;10.780;2024-02-15T07:52:16;8.90;96.70
45115;DHT22;30877;43.706;10.780;2024-02-15T07:54:46;8.90;96.70
45115;DHT22;30877;43.706;10.780;2024-02-15T07:57:16;8.90;96.70
45115;DHT22;30877;43.706;10.780;2024-02-15T07:59:45;8.90;96.70
45115;DHT22;30877;43.706;10.780;2024-02-15T08:02:16;8.90;96.70
45115;DHT22;30877;43.706;10.780;2024-02-15T08:04:51;9.00;96.70
45115;DHT22;30877;43.706;10.780;2024-02-15T08:07:23;9.00;96.70
45115;DHT22;30877;43.706;10.780;2024-02-15T08:09:56;9.10;96.70
45115;DHT22;30877;43.706;10.780;2024-02-15T08:12:25;9.10;96.70
45115;DHT22;30877;43.706;10.780;2024-02-15T08:14:57;9.20;96.70
45115;DHT22;30877;43.706;10.780;2024-02-15T08:17:28;9.30;96.70
45115;DHT22;30877;43.706;10.780;2024-02-15T08:19:57;9.30;96.70
45115;DHT22;30877;43.706;10.780;2024-02-15T08:22:29;9.30;96.70
45115;DHT22;30877;43.706;10.780;2024-02-15T08:25:00;9.40;96.70
45115;DHT22;30877;43.706;10.780;2024-02-15T08:27:33;9.30;96.70
45115;DHT22;30877;43.706;10.780;2024-02-15T08:30:09;9.40;96.70
45115;DHT22;30877;43.706;10.780;2024-02-15T08:32:40;9.30;96.70
45115;DHT22;30877;43.706;10.780;2024-02-15T08:35:11;9.20;96.70
45115;DHT22;30877;43.706;10.780;2024-02-15T08:37:42;9.20;96.70
45115;DHT22;30877;43.706;10.780;2024-02-15T08:40:15;9.30;96.70
45115;DHT22;30877;43.706;10.780;2024-02-15T08:42:47;9.40;96.70
45115;DHT22;30877;43.706;10.780;2024-02-15T08:45:16;9.40;96.70
45115;DHT22;30877;43.706;10.780;2024-02-15T08:47:48;9.40;96.70
45115;DHT22;30877;43.706;10.780;2024-02-15T08:50:19;9.50;96.70
45115;DHT22;30877;43.706;10.780;2024-02-15T08:52:55;9.50;96.70
45115;DHT22;30877;43.706;10.780;2024-02-15T08:55:24;9.50;96.70
45115;DHT22;30877;43.706;10.780;2024-02-15T08:57:55;9.50;96.70
45115;DHT22;30877;43.706;10.780;2024-02-15T09:00:24;9.50;96.70
45115;DHT22;30877;43.706;10.780;2024-02-15T09:02:56;9.60;96.70
45115;DHT22;30877;43.706;10.780;2024-02-15T09:05:26;9.60;96.70
45115;DHT22;30877;43.706;10.780;2024-02-15T09:07:58;9.70;96.70
45115;DHT22;30877;43.706;10.780;2024-02-15T09:10:29;9.80;96.70
45115;DHT22;30877;43.706;10.780;2024-02-15T09:12:58;9.70;96.70
45115;DHT22;30877;43.706;10.780;2024-02-15T09:15:28;9.70;96.70
45115;DHT22;30877;43.706;10.780;2024-02-15T09:17:59;9.80;96.70
45115;DHT22;30877;43.706;10.780;2024-02-15T09:20:31;9.90;96.70
45115;DHT22;30877;43.706;10.780;2024-02-15T09:23:04;9.90;96.70
45115;DHT22;30877;43.706;10.780;2024-02-15T09:25:39;10.00;96.70
45115;DHT22;30877;43.706;10.780;2024-02-15T09:28:07;10.10;96.70
45115;DHT22;30877;43.706;10.780;2024-02-15T09:30:36;10.10;96.70
45115;DHT22;30877;43.706;10.780;2024-02-15T09:33:06;10.30;96.70
45115;DHT22;30877;43.706;10.780;2024-02-15T09:35:35;10.30;96.70
45115;DHT22;30877;43.706;10.780;2024-02-15T09:38:07;10.40;96.70
45115;DHT22;30877;43.706;10.780;2024-02-15T09:40:37;10.40;96.70
45115;DHT22;30877;43.706;10.780;2024-02-15T09:43:06;10.60;96.70
45115;DHT22;30877;43.706;10.780;2024-02-15T09:45:35;10.60;96.70
45115;DHT22;30877;43.706;10.780;2024-02-15T09:48:07;10.80;96.70
45115;DHT22;30877;43.706;10.780;2024-02-15T09:50:39;10.90;96.70
45115;DHT22;30877;43.706;10.780;2024-02-15T09:53:21;11.10;96.70
45115;DHT22;30877;43.706;10.780;2024-02-15T09:55:50;11.30;96.70
45115;DHT22;30877;43.706;10.780;2024-02-15T09:58:22;11.30;96.70
45115;DHT22;30877;43.706;10.780;2024-02-15T10:00:54;11.30;96.70
45115;DHT22;30877;43.706;10.780;2024-02-15T10:03:26;11.40;96.70
45115;DHT22;30877;43.706;10.780;2024-02-15T10:05:57;11.50;96.70
45115;DHT22;30877;43.706;10.780;2024-02-15T10:08:32;11.60;96.70
45115;DHT22;30877;43.706;10.780;2024-02-15T10:11:07;11.70;96.70
45115;DHT22;30877;43.706;10.780;2024-02-15T10:13:40;11.70;96.70
45115;DHT22;30877;43.706;10.780;2024-02-15T10:16:15;11.60;96.70
45115;DHT22;30877;43.706;10.780;2024-02-15T10:18:47;11.60;96.70
45115;DHT22;30877;43.706;10.780;2024-02-15T10:21:26;11.60;96.70
45115;DHT22;30877;43.706;10.780;2024-02-15T10:24:08;11.60;96.70
45115;DHT22;30877;43.706;10.780;2024-02-15T10:26:38;11.70;96.70
45115;DHT22;30877;43.706;10.780;2024-02-15T10:29:09;11.60;96.70
45115;DHT22;30877;43.706;10.780;2024-02-15T10:31:40;11.50;96.70
45115;DHT22;30877;43.706;10.780;2024-02-15T10:34:21;11.60;96.70
45115;DHT22;30877;43.706;10.780;2024-02-15T10:36:53;11.60;96.70
45115;DHT22;30877;43.706;10.780;2024-02-15T10:39:24;11.50;96.70
45115;DHT22;30877;43.706;10.780;2024-02-15T10:41:54;11.50;96.70
45115;DHT22;30877;43.706;10.780;2024-02-15T10:44:23;11.50;96.70
45115;DHT22;30877;43.706;10.780;2024-02-15T10:46:55;11.60;96.70
45115;DHT22;30877;43.706;10.780;2024-02-15T10:49:25;11.80;96.70
45115;DHT22;30877;43.706;10.780;2024-02-15T10:51:57;11.90;96.70
45115;DHT22;30877;43.706;10.780;2024-02-15T10:54:40;12.00;96.70
45115;DHT22;30877;43.706;10.780;2024-02-15T10:57:11;11.90;96.70
45115;DHT22;30877;43.706;10.780;2024-02-15T10:59:53;12.10;96.70
45115;DHT22;30877;43.706;10.780;2024-02-15T11:02:30;12.10;96.70
45115;DHT22;30877;43.706;10.780;2024-02-15T11:05:02;12.20;96.70
45115;DHT22;30877;43.706;10.780;2024-02-15T11:07:33;12.30;96.70
45115;DHT22;30877;43.706;10.780;2024-02-15T11:10:07;12.50;96.70
45115;DHT22;30877;43.706;10.780;2024-02-15T11:12:40;12.60;96.70
45115;DHT22;30877;43.706;10.780;2024-02-15T11:15:41;12.60;96.70
45115;DHT22;30877;43.706;10.780;2024-02-15T11:18:13;12.70;96.70
45115;DHT22;30877;43.706;10.780;2024-02-15T11:21:02;12.80;96.70
45115;DHT22;30877;43.706;10.780;2024-02-15T11:23:31;12.90;96.70
45115;DHT22;30877;43.706;10.780;2024-02-15T11:26:08;12.90;96.70
45115;DHT22;30877;43.706;10.780;2024-02-15T11:28:40;13.00;96.70
45115;DHT22;30877;43.706;10.780;2024-02-15T11:34:44;13.10;96.70
45115;DHT22;30877;43.706;10.780;2024-02-15T11:37:54;13.10;96.70
45115;DHT22;30877;43.706;10.780;2024-02-15T11:40:29;13.20;96.70
45115;DHT22;30877;43.706;10.780;2024-02-15T11:43:52;13.30;96.70
45115;DHT22;30877;43.706;10.780;2024-02-15T11:46:28;13.40;96.70
45115;DHT22;30877;43.706;10.780;2024-02-15T11:49:02;13.50;96.70
45115;DHT22;30877;43.706;10.780;2024-02-15T11:51:33;13.60;96.70
45115;DHT22;30877;43.706;10.780;2024-02-15T11:54:07;13.70;96.70
45115;DHT22;30877;43.706;10.780;2024-02-15T11:56:52;13.90;96.70
45115;DHT22;30877;43.706;10.780;2024-02-15T11:59:40;14.10;96.70
45115;DHT22;30877;43.706;10.780;2024-02-15T12:02:32;14.20;96.70
45115;DHT22;30877;43.706;10.780;2024-02-15T12:05:19;14.40;96.70
45115;DHT22;30877;43.706;10.780;2024-02-15T12:08:06;14.50;96.70
45115;DHT22;30877;43.706;10.780;2024-02-15T12:11:01;14.50;96.70
45115;DHT22;30877;43.706;10.780;2024-02-15T12:13:50;14.50;96.70
45115;DHT22;30877;43.706;10.780;2024-02-15T12:16:38;14.50;96.70
45115;DHT22;30877;43.706;10.780;2024-02-15T12:19:25;14.60;96.70
45115;DHT22;30877;43.706;10.780;2024-02-15T12:21:54;14.70;96.70
45115;DHT22;30877;43.706;10.780;2024-02-15T12:24:25;14.70;96.70
45115;DHT22;30877;43.706;10.780;2024-02-15T12:27:00;14.80;96.70
45115;DHT22;30877;43.706;10.780;2024-02-15T12:29:32;14.90;96.70
45115;DHT22;30877;43.706;10.780;2024-02-15T12:32:02;15.00;96.70
45115;DHT22;30877;43.706;10.780;2024-02-15T12:34:31;15.10;96.70
45115;DHT22;30877;43.706;10.780;2024-02-15T12:37:06;15.40;96.70
45115;DHT22;30877;43.706;10.780;2024-02-15T12:39:37;15.50;96.70
45115;DHT22;30877;43.706;10.780;2024-02-15T12:42:07;15.50;96.70
45115;DHT22;30877;43.706;10.780;2024-02-15T12:44:37;15.50;96.70
45115;DHT22;30877;43.706;10.780;2024-02-15T12:47:18;15.60;96.70
45115;DHT22;30877;43.706;10.780;2024-02-15T12:49:46;15.70;96.70
45115;DHT22;30877;43.706;10.780;2024-02-15T12:52:36;15.90;96.70
45115;DHT22;30877;43.706;10.780;2024-02-15T12:55:10;16.00;96.70
45115;DHT22;30877;43.706;10.780;2024-02-15T12:57:39;16.30;96.70
45115;DHT22;30877;43.706;10.780;2024-02-15T13:00:10;16.40;96.70
45115;DHT22;30877;43.706;10.780;2024-02-15T13:02:43;16.40;96.70
45115;DHT22;30877;43.706;10.780;2024-02-15T13:05:14;16.30;96.70
45115;DHT22;30877;43.706;10.780;2024-02-15T13:07:45;16.30;96.70
45115;DHT22;30877;43.706;10.780;2024-02-15T13:10:14;16.40;96.70
45115;DHT22;30877;43.706;10.780;2024-02-15T13:12:44;16.40;96.70
45115;DHT22;30877;43.706;10.780;2024-02-15T13:15:15;16.50;96.70
45115;DHT22;30877;43.706;10.780;2024-02-15T13:17:47;16.50;96.70
45115;DHT22;30877;43.706;10.780;2024-02-15T13:20:22;16.70;96.70
45115;DHT22;30877;43.706;10.780;2024-02-15T13:23:04;16.70;96.70
45115;DHT22;30877;43.706;10.780;2024-02-15T13:25:53;16.70;96.70
45115;DHT22;30877;43.706;10.780;2024-02-15T13:28:25;16.90;96.70
45115;DHT22;30877;43.706;10.780;2024-02-15T13:30:55;17.00;96.70
45115;DHT22;30877;43.706;10.780;2024-02-15T13:33:25;17.00;96.70
45115;DHT22;30877;43.706;10.780;2024-02-15T13:36:01;16.90;96.70
45115;DHT22;30877;43.706;10.780;2024-02-15T13:38:30;17.10;96.70
45115;DHT22;30877;43.706;10.780;2024-02-15T13:41:03;17.30;96.70
45115;DHT22;30877;43.706;10.780;2024-02-15T13:43:32;17.40;96.70
45115;DHT22;30877;43.706;10.780;2024-02-15T13:46:01;17.30;96.70
45115;DHT22;30877;43.706;10.780;2024-02-15T13:48:32;17.40;96.70
45115;DHT22;30877;43.706;10.780;2024-02-15T13:51:03;17.30;96.70
45115;DHT22;30877;43.706;10.780;2024-02-15T13:53:31;17.30;96.70
45115;DHT22;30877;43.706;10.780;2024-02-15T13:56:00;17.30;96.70
45115;DHT22;30877;43.706;10.780;2024-02-15T13:58:28;17.50;96.70
45115;DHT22;30877;43.706;10.780;2024-02-15T14:00:57;17.70;96.70
45115;DHT22;30877;43.706;10.780;2024-02-15T14:03:27;17.80;96.70
45115;DHT22;30877;43.706;10.780;2024-02-15T14:05:57;17.90;96.70
45115;DHT22;30877;43.706;10.780;2024-02-15T14:08:30;18.00;96.70
45115;DHT22;30877;43.706;10.780;2024-02-15T14:10:58;18.00;96.70
45115;DHT22;30877;43.706;10.780;2024-02-15T14:13:27;18.10;96.70
45115;DHT22;30877;43.706;10.780;2024-02-15T14:15:57;18.00;96.70
45115;DHT22;30877;43.706;10.780;2024-02-15T14:18:27;17.90;96.70
45115;DHT22;30877;43.706;10.780;2024-02-15T14:20:58;17.90;96.70
45115;DHT22;30877;43.706;10.780;2024-02-15T14:23:28;17.80;96.70
45115;DHT22;30877;43.706;10.780;2024-02-15T14:25:57;17.80;96.70
45115;DHT22;30877;43.706;10.780;2024-02-15T14:28:30;17.80;96.70
45115;DHT22;30877;43.706;10.780;2024-02-15T14:30:59;17.80;96.70
45115;DHT22;30877;43.706;10.780;2024-02-15T14:33:48;17.70;96.70
45115;DHT22;30877;43.706;10.780;2024-02-15T14:36:21;17.80;96.70
45115;DHT22;30877;43.706;10.780;2024-02-15T14:38:52;17.70;96.70
45115;DHT22;30877;43.706;10.780;2024-02-15T14:41:22;17.70;96.70
45115;DHT22;30877;43.706;10.780;2024-02-15T14:44:01;17.60;96.70
45115;DHT22;30877;43.706;10.780;2024-02-15T14:46:30;17.70;96.70
45115;DHT22;30877;43.706;10.780;2024-02-15T14:49:00;17.70;96.70
45115;DHT22;30877;43.706;10.780;2024-02-15T14:51:34;17.60;96.70
45115;DHT22;30877;43.706;10.780;2024-02-15T14:54:05;17.60;96.70
45115;DHT22;30877;43.706;10.780;2024-02-15T14:56:36;17.50;96.70
45115;DHT22;30877;43.706;10.780;2024-02-15T14:59:06;17.60;96.70
45115;DHT22;30877;43.706;10.780;2024-02-15T15:01:37;17.60;96.70
45115;DHT22;30877;43.706;10.780;2024-02-15T15:04:08;17.60;96.70
45115;DHT22;30877;43.706;10.780;2024-02-15T15:06:46;17.60;96.70
45115;DHT22;30877;43.706;10.780;2024-02-15T15:09:37;17.60;96.70
45115;DHT22;30877;43.706;10.780;2024-02-15T15:12:25;17.50;96.70
45115;DHT22;30877;43.706;10.780;2024-02-15T15:15:08;17.50;96.70
45115;DHT22;30877;43.706;10.780;2024-02-15T15:17:41;17.50;96.70
45115;DHT22;30877;43.706;10.780;2024-02-15T15:20:11;17.40;96.70
45115;DHT22;30877;43.706;10.780;2024-02-15T15:22:41;17.40;96.70
45115;DHT22;30877;43.706;10.780;2024-02-15T15:25:10;17.40;96.70
45115;DHT22;30877;43.706;10.780;2024-02-15T15:27:41;17.40;96.70
45115;DHT22;30877;43.706;10.780;2024-02-15T15:30:12;17.30;96.70
45115;DHT22;30877;43.706;10.780;2024-02-15T15:32:43;17.30;96.70
45115;DHT22;30877;43.706;10.780;2024-02-15T15:35:14;17.50;96.70
45115;DHT22;30877;43.706;10.780;2024-02-15T15:37:47;17.60;96.70
45115;DHT22;30877;43.706;10.780;2024-02-15T15:40:18;17.80;96.70
45115;DHT22;30877;43.706;10.780;2024-02-15T15:42:50;17.90;96.70
45115;DHT22;30877;43.706;10.780;2024-02-15T15:45:19;18.10;96.70
45115;DHT22;30877;43.706;10.780;2024-02-15T15:47:49;18.60;96.70
45115;DHT22;30877;43.706;10.780;2024-02-15T15:50:19;18.90;96.70
45115;DHT22;30877;43.706;10.780;2024-02-15T15:52:51;19.50;96.70
45115;DHT22;30877;43.706;10.780;2024-02-15T15:55:22;19.40;96.70
45115;DHT22;30877;43.706;10.780;2024-02-15T15:57:52;19.40;96.70